sensor_id;sensor_type;location;lat;lon;timestamp;pressure;altitude;pressure_sealevel;temperature;humidity
34374;BME280;20637;55.770;37.592;2022-09-21T00:00:27;99621.06;;;11.45;77.28
34374;BME280;20637;55.770;37.592;2022-09-21T00:02:55;99630.88;;;11.46;76.92
34374;BME280;20637;55.770;37.592;2022-09-21T00:05:21;99625.63;;;11.44;76.96
34374;BME280;20637;55.770;37.592;2022-09-21T00:07:47;99627.47;;;11.44;76.95
34374;BME280;20637;55.770;37.592;2022-09-21T00:10:12;99618.72;;;11.42;76.75
34374;BME280;20637;55.770;37.592;2022-09-21T00:12:39;99623.94;;;11.43;76.94
34374;BME280;20637;55.770;37.592;2022-09-21T00:15:09;99622.91;;;11.44;77.08
34374;BME280;20637;55.770;37.592;2022-09-21T00:17:35;99624.13;;;11.42;77.42
34374;BME280;20637;55.770;37.592;2022-09-21T00:20:03;99629.03;;;11.38;77.05
34374;BME280;20637;55.770;37.592;2022-09-21T00:22:31;99622.94;;;11.36;77.25
34374;BME280;20637;55.770;37.592;2022-09-21T00:24:57;99622.09;;;11.36;77.37
34374;BME280;20637;55.770;37.592;2022-09-21T00:27:22;99626.66;;;11.35;77.17
34374;BME280;20637;55.770;37.592;2022-09-21T00:29:58;99623.94;;;11.35;77.57
34374;BME280;20637;55.770;37.592;2022-09-21T00:32:31;99617.88;;;11.33;77.44
34374;BME280;20637;55.770;37.592;2022-09-21T00:34:58;99624.66;;;11.29;77.53
34374;BME280;20637;55.770;37.592;2022-09-21T00:37:25;99625.00;;;11.26;77.67
34374;BME280;20637;55.770;37.592;2022-09-21T00:39:51;99630.41;;;11.26;77.79
34374;BME280;20637;55.770;37.592;2022-09-21T00:42:19;99633.97;;;11.27;77.91
34374;BME280;20637;55.770;37.592;2022-09-21T00:44:46;99635.81;;;11.26;77.78
34374;BME280;20637;55.770;37.592;2022-09-21T00:47:18;99639.53;;;11.25;77.85
34374;BME280;20637;55.770;37.592;2022-09-21T00:49:48;99638.31;;;11.28;78.35
34374;BME280;20637;55.770;37.592;2022-09-21T00:52:15;99637.50;;;11.27;78.25
34374;BME280;20637;55.770;37.592;2022-09-21T00:54:53;99629.41;;;11.27;78.12
34374;BME280;20637;55.770;37.592;2022-09-21T00:57:23;99631.56;;;11.24;78.05
34374;BME280;20637;55.770;37.592;2022-09-21T00:59:53;99633.28;;;11.25;78.16
34374;BME280;20637;55.770;37.592;2022-09-21T01:02:20;99631.41;;;11.25;78.38
34374;BME280;20637;55.770;37.592;2022-09-21T01:04:46;99628.72;;;11.25;78.33
34374;BME280;20637;55.770;37.592;2022-09-21T01:07:16;99628.56;;;11.27;78.25
34374;BME280;20637;55.770;37.592;2022-09-21T01:09:47;99631.41;;;11.25;78.38
34374;BME280;20637;55.770;37.592;2022-09-21T01:15:04;99635.31;;;11.23;78.23
34374;BME280;20637;55.770;37.592;2022-09-21T01:30:58;99622.16;;;11.20;78.16
34374;BME280;20637;55.770;37.592;2022-09-21T01:33:30;99620.63;;;11.17;78.03
34374;BME280;20637;55.770;37.592;2022-09-21T01:36:25;99622.66;;;11.15;78.49
34374;BME280;20637;55.770;37.592;2022-09-21T01:38:55;99624.03;;;11.11;78.28
34374;BME280;20637;55.770;37.592;2022-09-21T01:41:26;99630.28;;;11.12;78.44
34374;BME280;20637;55.770;37.592;2022-09-21T01:43:56;99624.19;;;11.10;78.54
34374;BME280;20637;55.770;37.592;2022-09-21T01:46:26;99623.53;;;11.08;78.54
34374;BME280;20637;55.770;37.592;2022-09-21T01:49:02;99623.69;;;11.06;78.73
34374;BME280;20637;55.770;37.592;2022-09-21T01:51:31;99641.75;;;11.06;78.92
34374;BME280;20637;55.770;37.592;2022-09-21T01:54:03;99636.00;;;11.09;79.08
34374;BME280;20637;55.770;37.592;2022-09-21T01:56:35;99627.75;;;11.10;78.55
34374;BME280;20637;55.770;37.592;2022-09-21T02:01:30;99644.09;;;11.09;78.90
34374;BME280;20637;55.770;37.592;2022-09-21T02:04:03;99640.75;;;11.07;78.87
34374;BME280;20637;55.770;37.592;2022-09-21T02:06:33;99633.66;;;11.06;78.85
34374;BME280;20637;55.770;37.592;2022-09-21T02:08:58;99646.00;;;11.08;79.01
34374;BME280;20637;55.770;37.592;2022-09-21T02:11:24;99638.69;;;11.09;79.10
34374;BME280;20637;55.770;37.592;2022-09-21T02:13:52;99635.69;;;11.12;78.89
34374;BME280;20637;55.770;37.592;2022-09-21T02:19:15;99642.25;;;11.09;78.90
34374;BME280;20637;55.770;37.592;2022-09-21T02:32:46;99651.19;;;11.18;78.86
34374;BME280;20637;55.770;37.592;2022-09-21T02:35:36;99640.38;;;11.18;78.76
34374;BME280;20637;55.770;37.592;2022-09-21T02:40:50;99652.03;;;11.18;79.07
34374;BME280;20637;55.770;37.592;2022-09-21T02:43:24;99658.28;;;11.19;78.91
34374;BME280;20637;55.770;37.592;2022-09-21T02:46:00;99657.28;;;11.20;78.73
34374;BME280;20637;55.770;37.592;2022-09-21T02:48:34;99658.09;;;11.20;78.52
34374;BME280;20637;55.770;37.592;2022-09-21T02:51:15;99646.47;;;11.20;78.93
34374;BME280;20637;55.770;37.592;2022-09-21T02:53:43;99647.28;;;11.20;78.60
34374;BME280;20637;55.770;37.592;2022-09-21T02:56:12;99647.28;;;11.20;78.82
34374;BME280;20637;55.770;37.592;2022-09-21T02:58:45;99648.13;;;11.21;78.48
34374;BME280;20637;55.770;37.592;2022-09-21T03:01:14;99645.44;;;11.21;78.89
34374;BME280;20637;55.770;37.592;2022-09-21T03:03:40;99637.69;;;11.18;78.79
34374;BME280;20637;55.770;37.592;2022-09-21T03:06:06;99636.47;;;11.20;78.81
34374;BME280;20637;55.770;37.592;2022-09-21T03:08:32;99640.88;;;11.21;78.60
34374;BME280;20637;55.770;37.592;2022-09-21T03:10:57;99647.78;;;11.24;78.59
34374;BME280;20637;55.770;37.592;2022-09-21T03:13:23;99651.19;;;11.26;78.48
34374;BME280;20637;55.770;37.592;2022-09-21T03:15:49;99646.44;;;11.28;78.81
34374;BME280;20637;55.770;37.592;2022-09-21T03:18:15;99653.38;;;11.30;78.22
34374;BME280;20637;55.770;37.592;2022-09-21T03:20:45;99652.69;;;11.28;78.15
34374;BME280;20637;55.770;37.592;2022-09-21T03:23:11;99647.47;;;11.27;78.47
34374;BME280;20637;55.770;37.592;2022-09-21T03:25:37;99649.31;;;11.26;78.39
34374;BME280;20637;55.770;37.592;2022-09-21T03:28:03;99652.88;;;11.27;78.50
34374;BME280;20637;55.770;37.592;2022-09-21T03:30:29;99646.28;;;11.29;78.53
34374;BME280;20637;55.770;37.592;2022-09-21T03:32:56;99651.16;;;11.34;78.61
34374;BME280;20637;55.770;37.592;2022-09-21T03:35:23;99647.25;;;11.36;78.38
34374;BME280;20637;55.770;37.592;2022-09-21T03:37:51;99648.59;;;11.40;78.07
34374;BME280;20637;55.770;37.592;2022-09-21T03:40:17;99647.59;;;11.41;78.26
34374;BME280;20637;55.770;37.592;2022-09-21T03:42:44;99641.69;;;11.46;78.25
34374;BME280;20637;55.770;37.592;2022-09-21T03:45:11;99647.56;;;11.50;77.95
34374;BME280;20637;55.770;37.592;2022-09-21T03:47:37;99651.63;;;11.54;77.83
34374;BME280;20637;55.770;37.592;2022-09-21T03:50:04;99645.16;;;11.55;77.66
34374;BME280;20637;55.770;37.592;2022-09-21T03:52:30;99647.56;;;11.58;77.77
34374;BME280;20637;55.770;37.592;2022-09-21T03:54:56;99633.84;;;11.59;77.60
34374;BME280;20637;55.770;37.592;2022-09-21T03:57:22;99635.69;;;11.59;77.38
34374;BME280;20637;55.770;37.592;2022-09-21T03:59:48;99636.38;;;11.61;77.32
34374;BME280;20637;55.770;37.592;2022-09-21T04:02:14;99639.75;;;11.63;77.43
34374;BME280;20637;55.770;37.592;2022-09-21T04:04:40;99643.28;;;11.63;77.39
34374;BME280;20637;55.770;37.592;2022-09-21T04:07:06;99641.28;;;11.65;77.44
34374;BME280;20637;55.770;37.592;2022-09-21T04:09:31;99645.84;;;11.65;77.36
34374;BME280;20637;55.770;37.592;2022-09-21T04:11:57;99645.31;;;11.69;77.31
34374;BME280;20637;55.770;37.592;2022-09-21T04:14:23;99638.56;;;11.73;77.03
34374;BME280;20637;55.770;37.592;2022-09-21T04:16:49;99646.97;;;11.78;76.96
34374;BME280;20637;55.770;37.592;2022-09-21T04:19:17;99642.25;;;11.80;77.09
34374;BME280;20637;55.770;37.592;2022-09-21T04:21:43;99649.16;;;11.83;76.75
34374;BME280;20637;55.770;37.592;2022-09-21T04:24:09;99637.97;;;11.86;76.77
34374;BME280;20637;55.770;37.592;2022-09-21T04:26:35;99631.41;;;11.88;76.90
34374;BME280;20637;55.770;37.592;2022-09-21T04:29:02;99637.66;;;11.89;76.66
34374;BME280;20637;55.770;37.592;2022-09-21T04:31:29;99631.19;;;11.90;76.73
34374;BME280;20637;55.770;37.592;2022-09-21T04:33:56;99639.16;;;11.91;76.76
34374;BME280;20637;55.770;37.592;2022-09-21T04:36:23;99634.59;;;11.92;76.74
34374;BME280;20637;55.770;37.592;2022-09-21T04:38:50;99633.59;;;11.93;76.74
34374;BME280;20637;55.770;37.592;2022-09-21T04:41:16;99635.06;;;11.96;76.30
34374;BME280;20637;55.770;37.592;2022-09-21T04:43:43;99636.78;;;11.97;76.38
34374;BME280;20637;55.770;37.592;2022-09-21T04:46:12;99640.66;;;11.94;76.47
34374;BME280;20637;55.770;37.592;2022-09-21T04:48:38;99647.09;;;11.93;76.41
34374;BME280;20637;55.770;37.592;2022-09-21T04:51:06;99649.63;;;11.94;76.44
34374;BME280;20637;55.770;37.592;2022-09-21T04:53:34;99654.00;;;11.96;76.85
34374;BME280;20637;55.770;37.592;2022-09-21T04:56:02;99649.44;;;11.96;76.31
34374;BME280;20637;55.770;37.592;2022-09-21T04:58:28;99652.50;;;11.93;76.35
34374;BME280;20637;55.770;37.592;2022-09-21T05:00:54;99654.69;;;11.89;76.57
34374;BME280;20637;55.770;37.592;2022-09-21T05:03:22;99655.06;;;11.86;76.17
34374;BME280;20637;55.770;37.592;2022-09-21T05:05:53;99657.59;;;11.88;76.23
34374;BME280;20637;55.770;37.592;2022-09-21T05:08:20;99663.84;;;11.88;76.31
34374;BME280;20637;55.770;37.592;2022-09-21T05:11:07;99663.00;;;11.88;76.17
34374;BME280;20637;55.770;37.592;2022-09-21T05:13:33;99670.94;;;11.89;76.07
34374;BME280;20637;55.770;37.592;2022-09-21T05:15:59;99670.94;;;11.89;76.26
34374;BME280;20637;55.770;37.592;2022-09-21T05:18:24;99667.06;;;11.92;76.43
34374;BME280;20637;55.770;37.592;2022-09-21T05:20:58;99667.22;;;11.90;76.48
34374;BME280;20637;55.770;37.592;2022-09-21T05:23:25;99660.97;;;11.90;76.10
34374;BME280;20637;55.770;37.592;2022-09-21T05:25:51;99667.69;;;11.94;76.64
34374;BME280;20637;55.770;37.592;2022-09-21T05:28:18;99662.78;;;11.98;76.11
34374;BME280;20637;55.770;37.592;2022-09-21T05:30:46;99665.50;;;11.98;76.22
34374;BME280;20637;55.770;37.592;2022-09-21T05:33:15;99653.81;;;11.97;76.35
34374;BME280;20637;55.770;37.592;2022-09-21T05:36:22;99657.22;;;11.99;76.11
34374;BME280;20637;55.770;37.592;2022-09-21T05:38:39;99656.84;;;12.02;76.22
34374;BME280;20637;55.770;37.592;2022-09-21T05:41:05;99655.00;;;12.03;76.51
34374;BME280;20637;55.770;37.592;2022-09-21T05:43:31;99642.31;;;12.03;76.28
34374;BME280;20637;55.770;37.592;2022-09-21T05:46:18;99655.13;;;12.09;76.60
34374;BME280;20637;55.770;37.592;2022-09-21T05:48:57;99649.28;;;12.20;77.02
34374;BME280;20637;55.770;37.592;2022-09-21T05:56:52;99639.47;;;12.50;75.91
34374;BME280;20637;55.770;37.592;2022-09-21T05:59:51;99646.69;;;12.58;76.13
34374;BME280;20637;55.770;37.592;2022-09-21T06:02:35;99638.03;;;12.62;75.79
34374;BME280;20637;55.770;37.592;2022-09-21T06:05:09;99651.69;;;12.69;75.86
34374;BME280;20637;55.770;37.592;2022-09-21T06:07:36;99644.69;;;12.74;74.98
34374;BME280;20637;55.770;37.592;2022-09-21T06:10:02;99648.53;;;12.80;75.62
34374;BME280;20637;55.770;37.592;2022-09-21T06:12:28;99651.09;;;12.81;75.29
34374;BME280;20637;55.770;37.592;2022-09-21T06:14:53;99657.69;;;12.79;74.86
34374;BME280;20637;55.770;37.592;2022-09-21T06:17:21;99660.59;;;12.77;74.59
34374;BME280;20637;55.770;37.592;2022-09-21T06:19:47;99652.47;;;12.77;74.64
34374;BME280;20637;55.770;37.592;2022-09-21T06:22:12;99650.25;;;12.81;74.87
34374;BME280;20637;55.770;37.592;2022-09-21T06:24:38;99653.59;;;12.83;74.41
34374;BME280;20637;55.770;37.592;2022-09-21T06:27:04;99658.38;;;12.81;74.79
34374;BME280;20637;55.770;37.592;2022-09-21T06:29:30;99664.56;;;12.89;74.48
34374;BME280;20637;55.770;37.592;2022-09-21T06:31:55;99655.53;;;12.97;74.75
34374;BME280;20637;55.770;37.592;2022-09-21T06:34:21;99657.13;;;13.06;74.00
34374;BME280;20637;55.770;37.592;2022-09-21T06:36:47;99652.31;;;13.16;74.18
34374;BME280;20637;55.770;37.592;2022-09-21T06:39:12;99657.84;;;13.23;74.11
34374;BME280;20637;55.770;37.592;2022-09-21T06:41:38;99647.75;;;13.31;73.82
34374;BME280;20637;55.770;37.592;2022-09-21T06:44:09;99650.56;;;13.38;73.26
34374;BME280;20637;55.770;37.592;2022-09-21T06:46:34;99660.84;;;13.43;73.00
34374;BME280;20637;55.770;37.592;2022-09-21T06:49:00;99653.47;;;13.51;72.93
34374;BME280;20637;55.770;37.592;2022-09-21T06:51:26;99656.06;;;13.59;73.02
34374;BME280;20637;55.770;37.592;2022-09-21T06:53:55;99652.63;;;13.65;72.73
34374;BME280;20637;55.770;37.592;2022-09-21T06:56:21;99650.84;;;13.72;72.34
34374;BME280;20637;55.770;37.592;2022-09-21T06:58:47;99655.03;;;13.75;72.04
34374;BME280;20637;55.770;37.592;2022-09-21T07:01:14;99654.22;;;13.74;71.97
34374;BME280;20637;55.770;37.592;2022-09-21T07:03:41;99656.84;;;13.68;71.92
34374;BME280;20637;55.770;37.592;2022-09-21T07:06:09;99656.19;;;13.66;71.78
34374;BME280;20637;55.770;37.592;2022-09-21T07:08:40;99650.66;;;13.59;71.87
34374;BME280;20637;55.770;37.592;2022-09-21T07:11:06;99655.44;;;13.57;71.90
34374;BME280;20637;55.770;37.592;2022-09-21T07:13:32;99657.00;;;13.52;72.09
34374;BME280;20637;55.770;37.592;2022-09-21T07:16:02;99651.78;;;13.50;72.00
34374;BME280;20637;55.770;37.592;2022-09-21T07:18:28;99654.13;;;13.53;72.52
34374;BME280;20637;55.770;37.592;2022-09-21T07:20:54;99653.28;;;13.53;72.71
34374;BME280;20637;55.770;37.592;2022-09-21T07:23:20;99658.53;;;13.54;72.51
34374;BME280;20637;55.770;37.592;2022-09-21T07:25:47;99652.91;;;13.56;71.90
34374;BME280;20637;55.770;37.592;2022-09-21T07:28:15;99654.50;;;13.65;72.65
34374;BME280;20637;55.770;37.592;2022-09-21T07:30:41;99652.53;;;13.73;72.02
34374;BME280;20637;55.770;37.592;2022-09-21T07:33:07;99650.38;;;13.83;72.09
34374;BME280;20637;55.770;37.592;2022-09-21T07:35:33;99647.09;;;13.88;71.42
34374;BME280;20637;55.770;37.592;2022-09-21T07:38:02;99652.41;;;13.96;71.14
34374;BME280;20637;55.770;37.592;2022-09-21T07:40:28;99653.72;;;14.00;71.25
34374;BME280;20637;55.770;37.592;2022-09-21T07:42:58;99654.94;;;14.12;70.54
34374;BME280;20637;55.770;37.592;2022-09-21T07:45:25;99652.81;;;14.29;70.27
34374;BME280;20637;55.770;37.592;2022-09-21T07:47:51;99646.72;;;14.42;69.90
34374;BME280;20637;55.770;37.592;2022-09-21T07:50:20;99653.16;;;14.55;69.25
34374;BME280;20637;55.770;37.592;2022-09-21T07:52:46;99649.06;;;14.66;68.95
34374;BME280;20637;55.770;37.592;2022-09-21T07:55:12;99644.13;;;14.76;68.22
34374;BME280;20637;55.770;37.592;2022-09-21T07:57:38;99646.94;;;14.83;67.70
34374;BME280;20637;55.770;37.592;2022-09-21T08:00:22;99651.59;;;14.89;67.38
34374;BME280;20637;55.770;37.592;2022-09-21T08:02:48;99648.53;;;14.98;66.81
34374;BME280;20637;55.770;37.592;2022-09-21T08:05:14;99643.75;;;15.00;66.20
34374;BME280;20637;55.770;37.592;2022-09-21T08:07:40;99640.56;;;14.97;65.96
34374;BME280;20637;55.770;37.592;2022-09-21T08:10:07;99639.88;;;14.88;65.72
34374;BME280;20637;55.770;37.592;2022-09-21T08:12:33;99641.16;;;14.92;65.90
34374;BME280;20637;55.770;37.592;2022-09-21T08:14:58;99638.50;;;14.99;65.78
34374;BME280;20637;55.770;37.592;2022-09-21T08:17:24;99643.28;;;14.97;65.72
34374;BME280;20637;55.770;37.592;2022-09-21T08:19:50;99644.78;;;14.99;65.89
34374;BME280;20637;55.770;37.592;2022-09-21T08:22:15;99646.50;;;15.07;65.60
34374;BME280;20637;55.770;37.592;2022-09-21T08:24:41;99647.41;;;15.14;65.67
34374;BME280;20637;55.770;37.592;2022-09-21T08:27:09;99646.19;;;15.16;65.48
34374;BME280;20637;55.770;37.592;2022-09-21T08:29:35;99645.78;;;15.19;65.36
34374;BME280;20637;55.770;37.592;2022-09-21T08:32:02;99640.78;;;15.23;65.00
34374;BME280;20637;55.770;37.592;2022-09-21T08:34:28;99642.88;;;15.21;65.01
34374;BME280;20637;55.770;37.592;2022-09-21T08:36:53;99643.88;;;15.13;64.82
34374;BME280;20637;55.770;37.592;2022-09-21T08:39:19;99637.31;;;15.08;64.75
34374;BME280;20637;55.770;37.592;2022-09-21T08:47:32;99635.16;;;15.24;65.19
34374;BME280;20637;55.770;37.592;2022-09-21T08:50:02;99636.66;;;15.34;64.67
34374;BME280;20637;55.770;37.592;2022-09-21T08:52:30;99629.00;;;15.44;64.31
34374;BME280;20637;55.770;37.592;2022-09-21T08:55:00;99623.44;;;15.52;64.23
34374;BME280;20637;55.770;37.592;2022-09-21T08:57:31;99622.81;;;15.56;63.75
34374;BME280;20637;55.770;37.592;2022-09-21T08:59:58;99618.44;;;15.55;63.60
34374;BME280;20637;55.770;37.592;2022-09-21T09:03:17;99611.19;;;15.41;63.64
34374;BME280;20637;55.770;37.592;2022-09-21T09:11:27;99617.88;;;15.11;64.09
34374;BME280;20637;55.770;37.592;2022-09-21T09:19:46;99617.25;;;15.37;63.63
34374;BME280;20637;55.770;37.592;2022-09-21T09:22:20;99625.41;;;15.37;63.28
34374;BME280;20637;55.770;37.592;2022-09-21T09:24:50;99608.88;;;15.38;63.17
34374;BME280;20637;55.770;37.592;2022-09-21T09:27:27;99609.97;;;15.44;62.92
34374;BME280;20637;55.770;37.592;2022-09-21T09:30:14;99601.22;;;15.48;62.28
34374;BME280;20637;55.770;37.592;2022-09-21T09:33:05;99603.56;;;15.51;62.21
34374;BME280;20637;55.770;37.592;2022-09-21T09:35:47;99602.91;;;15.49;62.10
34374;BME280;20637;55.770;37.592;2022-09-21T09:41:10;99599.81;;;15.52;62.09
34374;BME280;20637;55.770;37.592;2022-09-21T09:52:14;99599.72;;;15.46;61.50
34374;BME280;20637;55.770;37.592;2022-09-21T09:54:41;99602.13;;;15.55;61.74
34374;BME280;20637;55.770;37.592;2022-09-21T09:57:08;99603.84;;;15.63;61.69
34374;BME280;20637;55.770;37.592;2022-09-21T09:59:38;99591.34;;;15.75;61.76
34374;BME280;20637;55.770;37.592;2022-09-21T10:02:20;99605.38;;;15.79;61.34
34374;BME280;20637;55.770;37.592;2022-09-21T10:07:36;99601.38;;;15.75;61.05
34374;BME280;20637;55.770;37.592;2022-09-21T10:10:30;99605.16;;;15.80;60.46
34374;BME280;20637;55.770;37.592;2022-09-21T10:13:35;99599.09;;;15.78;59.99
34374;BME280;20637;55.770;37.592;2022-09-21T10:16:22;99597.25;;;15.85;59.80
34374;BME280;20637;55.770;37.592;2022-09-21T10:19:00;99593.50;;;15.99;59.26
34374;BME280;20637;55.770;37.592;2022-09-21T10:21:39;99592.66;;;15.92;57.83
34374;BME280;20637;55.770;37.592;2022-09-21T10:24:33;99597.66;;;15.89;57.73
34374;BME280;20637;55.770;37.592;2022-09-21T10:27:10;99597.66;;;15.89;57.49
34374;BME280;20637;55.770;37.592;2022-09-21T10:29:41;99596.41;;;15.85;57.03
34374;BME280;20637;55.770;37.592;2022-09-21T10:37:30;99584.78;;;15.63;57.27
34374;BME280;20637;55.770;37.592;2022-09-21T10:39:57;99594.41;;;15.59;57.48
34374;BME280;20637;55.770;37.592;2022-09-21T10:42:24;99589.41;;;15.69;57.77
34374;BME280;20637;55.770;37.592;2022-09-21T10:44:53;99586.75;;;15.82;57.63
34374;BME280;20637;55.770;37.592;2022-09-21T10:47:38;99588.66;;;15.82;57.30
34374;BME280;20637;55.770;37.592;2022-09-21T10:50:35;99586.34;;;15.79;57.54
34374;BME280;20637;55.770;37.592;2022-09-21T10:55:39;99575.41;;;15.72;58.00
34374;BME280;20637;55.770;37.592;2022-09-21T10:58:10;99586.72;;;15.76;58.12
34374;BME280;20637;55.770;37.592;2022-09-21T11:00:45;99583.38;;;15.80;58.22
34374;BME280;20637;55.770;37.592;2022-09-21T11:06:05;99586.34;;;15.79;58.41
34374;BME280;20637;55.770;37.592;2022-09-21T11:11:56;99585.06;;;15.75;58.35
34374;BME280;20637;55.770;37.592;2022-09-21T11:14:39;99586.94;;;15.74;58.44
34374;BME280;20637;55.770;37.592;2022-09-21T11:25:45;99580.03;;;15.78;58.42
34374;BME280;20637;55.770;37.592;2022-09-21T11:28:32;99568.75;;;15.81;58.37
34374;BME280;20637;55.770;37.592;2022-09-21T11:36:37;99577.31;;;15.78;58.49
34374;BME280;20637;55.770;37.592;2022-09-21T11:42:58;99569.78;;;15.80;58.21
34374;BME280;20637;55.770;37.592;2022-09-21T11:48:27;99568.31;;;15.78;58.20
34374;BME280;20637;55.770;37.592;2022-09-21T11:51:16;99552.00;;;15.84;58.24
34374;BME280;20637;55.770;37.592;2022-09-21T11:53:48;99560.41;;;15.89;58.42
34374;BME280;20637;55.770;37.592;2022-09-21T11:56:49;99562.28;;;15.89;58.81
34374;BME280;20637;55.770;37.592;2022-09-21T12:07:10;99552.59;;;15.80;59.87
34374;BME280;20637;55.770;37.592;2022-09-21T12:12:31;99548.44;;;15.84;59.94
34374;BME280;20637;55.770;37.592;2022-09-21T12:15:20;99550.34;;;15.83;59.98
34374;BME280;20637;55.770;37.592;2022-09-21T12:23:13;99551.56;;;15.74;60.39
34374;BME280;20637;55.770;37.592;2022-09-21T12:25:45;99553.63;;;15.72;60.29
34374;BME280;20637;55.770;37.592;2022-09-21T12:28:53;99547.56;;;15.70;60.43
34374;BME280;20637;55.770;37.592;2022-09-21T12:31:34;99546.88;;;15.61;60.60
34374;BME280;20637;55.770;37.592;2022-09-21T12:34:13;99548.56;;;15.56;60.35
34374;BME280;20637;55.770;37.592;2022-09-21T12:36:49;99551.28;;;15.56;60.80
34374;BME280;20637;55.770;37.592;2022-09-21T12:39:44;99537.69;;;15.56;60.70
34374;BME280;20637;55.770;37.592;2022-09-21T12:42:25;99547.06;;;15.53;60.38
34374;BME280;20637;55.770;37.592;2022-09-21T12:44:54;99547.47;;;15.50;60.39
34374;BME280;20637;55.770;37.592;2022-09-21T12:51:00;99543.06;;;15.49;60.45
34374;BME280;20637;55.770;37.592;2022-09-21T12:53:01;99550.75;;;15.46;60.62
34374;BME280;20637;55.770;37.592;2022-09-21T13:09:14;99545.47;;;15.38;61.31
34374;BME280;20637;55.770;37.592;2022-09-21T13:12:27;99554.47;;;15.38;61.14
34374;BME280;20637;55.770;37.592;2022-09-21T13:15:25;99553.63;;;15.31;61.15
34374;BME280;20637;55.770;37.592;2022-09-21T13:17:58;99545.88;;;15.28;61.23
34374;BME280;20637;55.770;37.592;2022-09-21T13:20:25;99548.78;;;15.26;61.40
34374;BME280;20637;55.770;37.592;2022-09-21T13:22:58;99552.75;;;15.24;61.84
34374;BME280;20637;55.770;37.592;2022-09-21T13:25:28;99543.75;;;15.23;61.75
34374;BME280;20637;55.770;37.592;2022-09-21T13:33:03;99542.66;;;15.18;61.90
34374;BME280;20637;55.770;37.592;2022-09-21T13:51:31;99535.75;;;15.22;61.99
34374;BME280;20637;55.770;37.592;2022-09-21T13:53:58;99532.44;;;15.20;62.35
34374;BME280;20637;55.770;37.592;2022-09-21T13:56:27;99538.91;;;15.19;62.72
34374;BME280;20637;55.770;37.592;2022-09-21T13:58:55;99538.91;;;15.19;62.57
34374;BME280;20637;55.770;37.592;2022-09-21T14:01:29;99532.63;;;15.18;62.45
34374;BME280;20637;55.770;37.592;2022-09-21T14:03:59;99537.22;;;15.18;62.69
34374;BME280;20637;55.770;37.592;2022-09-21T14:06:42;99535.34;;;15.18;62.80
34374;BME280;20637;55.770;37.592;2022-09-21T14:09:30;99537.03;;;15.19;62.86
34374;BME280;20637;55.770;37.592;2022-09-21T14:12:00;99534.50;;;15.18;63.16
34374;BME280;20637;55.770;37.592;2022-09-21T14:14:28;99534.50;;;15.18;63.22
34374;BME280;20637;55.770;37.592;2022-09-21T14:16:57;99525.31;;;15.19;63.15
34374;BME280;20637;55.770;37.592;2022-09-21T14:24:45;99524.63;;;15.10;63.26
34374;BME280;20637;55.770;37.592;2022-09-21T14:32:23;99531.69;;;14.98;63.47
34374;BME280;20637;55.770;37.592;2022-09-21T14:34:53;99532.25;;;14.94;63.81
34374;BME280;20637;55.770;37.592;2022-09-21T14:37:32;99536.19;;;14.91;63.65
34374;BME280;20637;55.770;37.592;2022-09-21T14:40:05;99529.28;;;14.89;63.80
34374;BME280;20637;55.770;37.592;2022-09-21T14:42:41;99527.19;;;14.91;63.95
34374;BME280;20637;55.770;37.592;2022-09-21T14:45:13;99528.03;;;14.91;63.98
34374;BME280;20637;55.770;37.592;2022-09-21T14:50:18;99530.13;;;14.89;63.90
34374;BME280;20637;55.770;37.592;2022-09-21T14:53:02;99532.84;;;14.89;64.21
34374;BME280;20637;55.770;37.592;2022-09-21T14:55:48;99530.97;;;14.90;64.13
34374;BME280;20637;55.770;37.592;2022-09-21T15:01:20;99534.09;;;14.87;63.93
34374;BME280;20637;55.770;37.592;2022-09-21T15:04:03;99536.34;;;14.83;64.09
34374;BME280;20637;55.770;37.592;2022-09-21T15:06:43;99541.34;;;14.79;64.48
34374;BME280;20637;55.770;37.592;2022-09-21T15:18:15;99543.13;;;14.66;64.73
34374;BME280;20637;55.770;37.592;2022-09-21T15:21:00;99552.53;;;14.63;64.56
34374;BME280;20637;55.770;37.592;2022-09-21T15:23:36;99546.59;;;14.60;65.00
34374;BME280;20637;55.770;37.592;2022-09-21T15:26:08;99560.41;;;14.58;64.88
34374;BME280;20637;55.770;37.592;2022-09-21T15:28:43;99550.56;;;14.57;64.87
34374;BME280;20637;55.770;37.592;2022-09-21T15:31:15;99555.56;;;14.54;64.96
34374;BME280;20637;55.770;37.592;2022-09-21T15:33:44;99548.44;;;14.53;64.90
34374;BME280;20637;55.770;37.592;2022-09-21T15:36:12;99562.00;;;14.53;65.45
34374;BME280;20637;55.770;37.592;2022-09-21T15:38:46;99564.72;;;14.53;65.31
34374;BME280;20637;55.770;37.592;2022-09-21T15:41:37;99554.72;;;14.53;65.72
34374;BME280;20637;55.770;37.592;2022-09-21T15:44:17;99555.09;;;14.50;65.26
34374;BME280;20637;55.770;37.592;2022-09-21T15:46:47;99556.97;;;14.50;65.52
34374;BME280;20637;55.770;37.592;2022-09-21T15:49:17;99560.09;;;14.47;66.10
34374;BME280;20637;55.770;37.592;2022-09-21T15:51:56;99564.69;;;14.46;66.22
34374;BME280;20637;55.770;37.592;2022-09-21T15:54:28;99556.94;;;14.43;66.20
34374;BME280;20637;55.770;37.592;2022-09-21T15:56:58;99570.06;;;14.40;66.34
34374;BME280;20637;55.770;37.592;2022-09-21T15:59:24;99572.94;;;14.38;66.32
34374;BME280;20637;55.770;37.592;2022-09-21T16:01:53;99578.38;;;14.38;66.55
34374;BME280;20637;55.770;37.592;2022-09-21T16:04:24;99572.50;;;14.35;66.08
34374;BME280;20637;55.770;37.592;2022-09-21T16:07:05;99586.22;;;14.33;66.30
34374;BME280;20637;55.770;37.592;2022-09-21T16:09:43;99590.84;;;14.32;66.24
34374;BME280;20637;55.770;37.592;2022-09-21T16:14:51;99591.41;;;14.28;66.44
34374;BME280;20637;55.770;37.592;2022-09-21T16:17:26;99589.53;;;14.28;66.39
34374;BME280;20637;55.770;37.592;2022-09-21T16:22:29;99603.03;;;14.22;66.46